createdAt,value
2019-02-23T00:01:06.382Z,-3.00
2019-02-23T00:06:29.945Z,-3.01
2019-02-23T00:11:41.540Z,-3.10
2019-02-23T00:16:59.188Z,-3.15
2019-02-23T00:22:17.217Z,-3.16
2019-02-23T00:27:34.943Z,-3.21
2019-02-23T00:32:52.334Z,-3.15
2019-02-23T00:38:09.800Z,-3.25
2019-02-23T00:43:27.990Z,-3.31
2019-02-23T00:48:45.178Z,-3.35
2019-02-23T00:54:02.879Z,-3.37
2019-02-23T00:59:20.335Z,-3.48
2019-02-23T01:04:37.876Z,-3.45
2019-02-23T01:09:55.713Z,-3.50
2019-02-23T01:15:13.729Z,-3.50
2019-02-23T01:20:31.740Z,-3.51
2019-02-23T01:25:49.310Z,-3.54
2019-02-23T01:31:06.632Z,-3.59
2019-02-23T01:36:25.123Z,-3.63
2019-02-23T01:41:43.527Z,-3.61
2019-02-23T01:47:01.483Z,-3.62
2019-02-23T01:52:18.972Z,-3.64
2019-02-23T01:57:37.147Z,-3.76
2019-02-23T02:02:54.990Z,-3.80
2019-02-23T02:08:12.777Z,-3.87
2019-02-23T02:13:30.534Z,-3.90
2019-02-23T02:18:48.026Z,-3.97
2019-02-23T02:24:06.034Z,-4.00
2019-02-23T02:29:23.838Z,-4.16
2019-02-23T02:34:41.949Z,-4.21
2019-02-23T02:39:59.463Z,-4.35
2019-02-23T02:45:17.722Z,-4.34
2019-02-23T02:50:35.327Z,-4.42
2019-02-23T02:55:53.239Z,-4.44
2019-02-23T03:01:11.343Z,-4.44
2019-02-23T03:06:29.000Z,-4.64
2019-02-23T03:11:46.355Z,-4.67
2019-02-23T03:17:04.329Z,-4.69
2019-02-23T03:22:23.480Z,-4.79
2019-02-23T03:27:43.048Z,-4.91
2019-02-23T03:33:00.718Z,-4.98
2019-02-23T03:38:19.252Z,-5.09
2019-02-23T03:43:36.940Z,-5.20
2019-02-23T03:48:55.121Z,-5.22
2019-02-23T03:54:12.750Z,-5.24
2019-02-23T03:59:30.299Z,-5.19
2019-02-23T04:04:47.872Z,-5.27
2019-02-23T04:10:05.849Z,-5.32
2019-02-23T04:15:23.377Z,-5.42
2019-02-23T04:20:40.473Z,-5.53
2019-02-23T04:25:58.960Z,-5.60
2019-02-23T04:31:18.068Z,-5.70
2019-02-23T04:36:37.880Z,-5.79
2019-02-23T04:41:55.151Z,-5.82
2019-02-23T04:47:12.647Z,-5.94
2019-02-23T04:52:30.485Z,-5.95
2019-02-23T04:57:48.345Z,-6.00
2019-02-23T05:03:05.994Z,-6.05
2019-02-23T05:08:25.017Z,-6.14
2019-02-23T05:13:44.221Z,-6.17
2019-02-23T05:19:04.476Z,-6.23
2019-02-23T05:24:24.209Z,-6.22
2019-02-23T05:29:44.168Z,-6.31
2019-02-23T05:35:04.154Z,-6.40
2019-02-23T05:40:21.451Z,-6.32
2019-02-23T05:45:40.643Z,-6.41
2019-02-23T05:50:58.490Z,-6.51
2019-02-23T05:56:17.875Z,-6.50
2019-02-23T06:01:35.230Z,-6.55
2019-02-23T06:06:53.332Z,-6.63
2019-02-23T06:12:11.041Z,-6.64
2019-02-23T06:17:28.473Z,-6.71
2019-02-23T06:22:47.000Z,-6.70
2019-02-23T06:28:04.630Z,-6.61
2019-02-23T06:33:21.983Z,-6.57
2019-02-23T06:38:40.046Z,-6.43
2019-02-23T06:43:57.840Z,-6.27
2019-02-23T06:49:15.878Z,-6.08
2019-02-23T06:54:33.607Z,-5.94
2019-02-23T06:59:51.722Z,-5.76
2019-02-23T07:05:09.064Z,-5.64
2019-02-23T07:10:26.737Z,-5.52
2019-02-23T07:15:44.270Z,-5.34
2019-02-23T07:21:02.097Z,-5.11
2019-02-23T07:26:20.171Z,-4.90
2019-02-23T07:31:37.899Z,-4.68
2019-02-23T07:36:56.551Z,-4.47
2019-02-23T07:42:16.033Z,-4.32
2019-02-23T07:47:34.328Z,-4.17
2019-02-23T07:52:51.486Z,-3.93
2019-02-23T07:58:09.648Z,-3.78
2019-02-23T08:03:27.819Z,-3.70
2019-02-23T08:08:45.674Z,-3.47
2019-02-23T08:14:04.039Z,-3.22
2019-02-23T08:19:21.537Z,-3.04
2019-02-23T08:24:39.174Z,-2.88
2019-02-23T08:29:57.737Z,-2.81
2019-02-23T08:35:16.621Z,-2.73
2019-02-23T08:40:34.948Z,-2.62
2019-02-23T08:45:52.628Z,-2.34
2019-02-23T08:51:10.401Z,-2.10
2019-02-23T08:56:28.022Z,-1.97
2019-02-23T09:01:45.759Z,-2.11
2019-02-23T09:07:03.507Z,-1.90
2019-02-23T09:12:20.835Z,-1.62
2019-02-23T09:17:38.563Z,-1.48
2019-02-23T09:23:00.091Z,-1.54
2019-02-23T09:28:14.233Z,-1.20
2019-02-23T09:33:32.951Z,-1.16
2019-02-23T09:38:51.137Z,-0.90
2019-02-23T09:44:08.346Z,-0.52
2019-02-23T09:49:25.688Z,-0.16
2019-02-23T09:54:43.597Z,0.02
2019-02-23T10:00:01.728Z,0.25
2019-02-23T10:05:19.485Z,0.47
2019-02-23T10:10:37.079Z,0.15
2019-02-23T10:15:54.740Z,0.61
2019-02-23T10:21:12.612Z,0.86
2019-02-23T10:26:31.287Z,1.24
2019-02-23T10:31:48.911Z,1.49
2019-02-23T10:37:06.491Z,1.60
2019-02-23T10:42:24.146Z,0.82
2019-02-23T10:47:42.340Z,1.81
2019-02-23T10:53:00.061Z,2.20
2019-02-23T10:58:17.759Z,2.36
2019-02-23T11:03:35.364Z,2.79
2019-02-23T11:08:52.619Z,4.13
2019-02-23T11:14:10.993Z,5.17
2019-02-23T11:19:29.060Z,3.95
2019-02-23T11:24:46.617Z,4.45
2019-02-23T11:30:04.330Z,6.64
2019-02-23T11:35:22.602Z,7.90
2019-02-23T11:40:40.446Z,9.04
2019-02-23T11:45:57.938Z,5.59
2019-02-23T11:51:15.742Z,9.76
2019-02-23T11:56:33.735Z,7.64
2019-02-23T12:01:51.192Z,8.17
2019-02-23T12:07:09.461Z,8.16
2019-02-23T12:12:27.811Z,9.01
2019-02-23T12:17:45.656Z,12.25
2019-02-23T12:23:04.536Z,12.88
2019-02-23T12:28:22.049Z,16.40
2019-02-23T12:33:40.061Z,12.69
2019-02-23T12:38:58.554Z,10.68
2019-02-23T12:44:17.537Z,10.05
2019-02-23T12:49:35.161Z,11.34
2019-02-23T12:54:52.987Z,9.11
2019-02-23T13:00:11.584Z,9.52
2019-02-23T13:05:29.321Z,12.17
2019-02-23T13:10:46.852Z,13.66
2019-02-23T13:16:09.760Z,11.60
2019-02-23T13:21:46.967Z,11.39
2019-02-23T13:27:12.900Z,11.96
2019-02-23T13:32:49.720Z,13.83
2019-02-23T13:38:16.475Z,12.81
2019-02-23T13:43:52.630Z,12.16
2019-02-23T13:49:45.293Z,11.63
2019-02-23T13:55:12.185Z,12.01
2019-02-23T14:00:47.889Z,12.48
2019-02-23T14:06:15.841Z,11.97
2019-02-23T14:11:42.940Z,12.34
2019-02-23T14:17:07.422Z,13.19
2019-02-23T14:22:36.200Z,13.25
2019-02-23T14:28:22.429Z,13.37
2019-02-23T14:34:05.710Z,13.61
2019-02-23T14:39:41.162Z,11.78
2019-02-23T14:45:19.939Z,12.17
2019-02-23T14:51:01.283Z,10.49
2019-02-23T14:56:30.223Z,11.20
2019-02-23T15:01:51.336Z,9.47
2019-02-23T15:07:35.885Z,8.61
2019-02-23T15:12:59.414Z,7.87
2019-02-23T15:18:35.861Z,5.42
2019-02-23T15:24:11.470Z,3.08
2019-02-23T15:29:51.531Z,2.70
2019-02-23T15:35:13.899Z,1.96
2019-02-23T15:40:42.384Z,1.49
2019-02-23T15:46:28.970Z,1.20
2019-02-23T15:51:47.817Z,0.86
2019-02-23T15:57:06.538Z,0.54
2019-02-23T16:02:24.027Z,0.27
2019-02-23T16:07:42.200Z,0.26
2019-02-23T16:13:00.730Z,0.27
2019-02-23T16:18:18.877Z,0.15
2019-02-23T16:23:36.549Z,0.00
2019-02-23T16:28:55.911Z,-0.32
2019-02-23T16:34:13.282Z,-0.45
2019-02-23T16:39:32.949Z,-0.55
2019-02-23T16:44:51.256Z,-0.65
2019-02-23T16:50:09.886Z,-0.77
2019-02-23T16:55:27.449Z,-1.37
2019-02-23T17:00:45.511Z,-1.38
2019-02-23T17:06:04.439Z,-1.46
2019-02-23T17:11:22.047Z,-1.61
2019-02-23T17:16:41.156Z,-1.74
2019-02-23T17:21:59.817Z,-1.77
2019-02-23T17:27:17.980Z,-1.81
2019-02-23T17:32:36.762Z,-1.96
2019-02-23T17:37:56.644Z,-2.07
2019-02-23T17:43:16.410Z,-2.24
2019-02-23T17:48:34.110Z,-2.32
2019-02-23T17:53:53.190Z,-2.33
2019-02-23T17:59:10.949Z,-2.74
2019-02-23T18:04:28.487Z,-2.69
2019-02-23T18:09:46.657Z,-2.71
2019-02-23T18:15:05.583Z,-2.73
2019-02-23T18:20:23.936Z,-2.82
2019-02-23T18:25:41.731Z,-3.00
2019-02-23T18:31:00.350Z,-3.12
2019-02-23T18:36:18.440Z,-3.21
2019-02-23T18:41:36.903Z,-3.55
2019-02-23T18:46:54.532Z,-3.48
2019-02-23T18:52:12.540Z,-3.44
2019-02-23T18:57:30.405Z,-3.44
2019-02-23T19:02:48.278Z,-3.49
2019-02-23T19:08:07.210Z,-3.60
2019-02-23T19:13:26.186Z,-3.62
2019-02-23T19:18:44.627Z,-3.65
2019-02-23T19:24:02.178Z,-3.75
2019-02-23T19:29:19.990Z,-3.96
2019-02-23T19:34:38.361Z,-4.11
2019-02-23T19:39:56.388Z,-4.34
2019-02-23T19:45:15.434Z,-4.26
2019-02-23T19:50:35.157Z,-4.38
2019-02-23T19:55:53.456Z,-4.36
2019-02-23T20:01:11.066Z,-4.53
2019-02-23T20:06:30.280Z,-4.48
2019-02-23T20:11:48.411Z,-4.50
2019-02-23T20:17:06.497Z,-4.43
2019-02-23T20:22:24.726Z,-4.56
2019-02-23T20:27:43.241Z,-4.69
2019-02-23T20:33:00.891Z,-4.68
2019-02-23T20:38:19.168Z,-4.67
2019-02-23T20:43:37.809Z,-4.81
2019-02-23T20:48:56.230Z,-4.85
2019-02-23T20:54:15.166Z,-4.83
2019-02-23T20:59:33.517Z,-4.95
2019-02-23T21:04:51.085Z,-5.00
2019-02-23T21:10:09.050Z,-4.97
2019-02-23T21:15:26.842Z,-5.03
2019-02-23T21:20:45.244Z,-5.02
2019-02-23T21:26:04.947Z,-5.10
2019-02-23T21:31:22.706Z,-5.06
2019-02-23T21:36:41.926Z,-5.21
2019-02-23T21:41:59.319Z,-5.13
2019-02-23T21:47:20.170Z,-5.15
2019-02-23T21:52:38.059Z,-5.07
2019-02-23T21:57:56.605Z,-5.28
2019-02-23T22:03:14.604Z,-5.60
2019-02-23T22:08:32.567Z,-5.47
2019-02-23T22:13:50.302Z,-5.43
2019-02-23T22:19:07.982Z,-5.30
2019-02-23T22:24:26.807Z,-5.32
2019-02-23T22:29:44.594Z,-5.48
2019-02-23T22:35:02.527Z,-5.43
2019-02-23T22:40:20.089Z,-5.53
2019-02-23T22:45:38.277Z,-5.53
2019-02-23T22:50:56.844Z,-5.58
2019-02-23T22:56:14.034Z,-5.52
2019-02-23T23:01:31.832Z,-5.56
2019-02-23T23:06:49.299Z,-5.50
2019-02-23T23:12:07.295Z,-5.50
2019-02-23T23:17:25.381Z,-5.62
2019-02-23T23:22:43.771Z,-5.82
2019-02-23T23:28:01.763Z,-5.87
2019-02-23T23:33:18.927Z,-5.87
2019-02-23T23:38:36.072Z,-5.99
2019-02-23T23:43:53.873Z,-5.93
2019-02-23T23:49:11.713Z,-6.06
2019-02-23T23:54:29.328Z,-6.13
2019-02-23T23:59:47.562Z,-6.11
